Time;durP1;ratioP1;P1;durP2;ratioP2;P2;SDS_P1;SDS_P2;PMS_P1;PMS_P2;Temp;Humidity;BMP_temperature;BMP_pressure;BME280_temperature;BME280_humidity;BME280_pressure;Samples;Min_cycle;Max_cycle;Signal;HPM_P1;HPM_P2
2021/06/06 00:01:07;;;;;;;4.53;3.70;;;15.70;99.90;;;;;;5079568;28;20036;-80
2021/06/06 00:03:38;;;;;;;3.92;3.42;;;15.70;99.90;;;;;;5067397;28;20035;-78
2021/06/06 00:06:11;;;;;;;4.25;3.85;;;15.70;99.90;;;;;;5073190;28;20056;-80
2021/06/06 00:08:38;;;;;;;4.53;3.78;;;15.70;99.90;;;;;;5078589;28;20059;-79
2021/06/06 00:11:11;;;;;;;4.53;4.07;;;15.70;99.90;;;;;;5079238;28;20043;-79
2021/06/06 00:13:39;;;;;;;3.95;3.53;;;15.70;99.90;;;;;;5078679;28;20633;-79
2021/06/06 00:16:11;;;;;;;4.82;3.83;;;15.70;99.90;;;;;;5078667;28;20093;-78
2021/06/06 00:18:37;;;;;;;4.00;3.60;;;15.70;99.90;;;;;;5076575;28;20090;-80
2021/06/06 00:21:03;;;;;;;3.83;3.42;;;15.70;99.90;;;;;;5072347;28;20428;-80
2021/06/06 00:23:31;;;;;;;5.55;3.70;;;15.80;99.90;;;;;;5078953;28;20036;-80
2021/06/06 00:25:57;;;;;;;4.25;3.80;;;15.80;99.90;;;;;;5078586;28;20068;-78
2021/06/06 00:28:23;;;;;;;5.60;3.67;;;15.80;99.90;;;;;;5071151;28;20036;-79
2021/06/06 00:30:49;;;;;;;3.33;3.03;;;15.80;99.90;;;;;;5066400;28;20033;-80
2021/06/06 00:33:15;;;;;;;4.45;3.65;;;15.80;99.90;;;;;;5085965;28;20105;-80
2021/06/06 00:35:43;;;;;;;5.43;3.63;;;15.80;99.90;;;;;;5070032;28;20036;-79
2021/06/06 00:38:08;;;;;;;3.95;3.47;;;15.70;99.90;;;;;;5066653;28;20369;-80
2021/06/06 00:40:37;;;;;;;4.10;3.58;;;15.70;99.90;;;;;;5086657;28;20038;-79
2021/06/06 00:43:08;;;;;;;4.03;3.40;;;15.70;99.90;;;;;;5093982;28;20066;-80
2021/06/06 00:45:40;;;;;;;3.55;3.22;;;15.70;99.90;;;;;;5084826;28;20035;-78
2021/06/06 00:48:08;;;;;;;4.20;3.53;;;15.70;99.90;;;;;;5092311;28;20029;-79
2021/06/06 00:50:41;;;;;;;5.80;3.72;;;15.70;99.90;;;;;;5058320;28;20062;-79
2021/06/06 00:53:12;;;;;;;3.83;3.28;;;15.80;99.90;;;;;;5078121;28;20479;-79
2021/06/06 00:55:39;;;;;;;3.58;3.20;;;15.70;99.90;;;;;;5077306;28;20056;-79
2021/06/06 00:58:10;;;;;;;3.85;3.38;;;15.70;99.90;;;;;;5080519;28;20028;-79
2021/06/06 01:00:41;;;;;;;5.38;3.47;;;15.70;99.90;;;;;;5084607;28;20076;-79
2021/06/06 01:03:07;;;;;;;3.38;3.08;;;15.70;99.90;;;;;;5080328;28;20025;-79
2021/06/06 01:05:36;;;;;;;5.10;3.90;;;15.70;99.90;;;;;;5076964;28;20394;-80
2021/06/06 01:08:09;;;;;;;4.00;3.55;;;15.70;99.90;;;;;;5082182;28;20025;-80
2021/06/06 01:10:38;;;;;;;5.05;3.58;;;15.70;99.90;;;;;;5072705;28;20702;-79
2021/06/06 01:13:08;;;;;;;4.97;3.53;;;15.70;99.90;;;;;;5087216;28;20123;-78
2021/06/06 01:15:51;;;;;;;4.80;4.03;;;15.70;99.90;;;;;;5058108;28;20219;-79
2021/06/06 01:18:29;;;;;;;6.25;3.35;;;15.70;99.90;;;;;;5090085;28;20031;-79
2021/06/06 01:21:09;;;;;;;5.05;4.18;;;15.70;99.90;;;;;;5077057;28;20056;-78
2021/06/06 01:23:52;;;;;;;5.60;3.53;;;15.70;99.90;;;;;;5089017;28;20017;-80
2021/06/06 01:26:30;;;;;;;4.22;3.83;;;15.70;99.90;;;;;;5088411;28;20027;-80
2021/06/06 01:29:08;;;;;;;4.65;3.83;;;15.70;99.90;;;;;;5094902;28;20029;-80
2021/06/06 01:31:39;;;;;;;4.18;3.50;;;15.70;99.90;;;;;;5097065;28;20040;-80
2021/06/06 01:34:08;;;;;;;4.38;3.97;;;15.80;99.90;;;;;;5079710;28;20036;-80
2021/06/06 01:36:52;;;;;;;5.35;4.18;;;15.80;99.90;;;;;;5095615;28;20033;-79
2021/06/06 01:39:26;;;;;;;6.32;4.20;;;15.80;99.90;;;;;;5088709;28;20037;-78
2021/06/06 01:41:58;;;;;;;5.18;3.80;;;15.80;99.90;;;;;;5076944;28;20032;-80
2021/06/06 01:44:30;;;;;;;4.82;4.10;;;15.80;99.90;;;;;;5065134;28;20050;-79
2021/06/06 01:47:07;;;;;;;5.68;4.13;;;15.80;99.90;;;;;;5088953;28;20067;-78
2021/06/06 01:50:02;;;;;;;5.68;4.53;;;15.90;99.90;;;;;;5085811;28;20643;-79
2021/06/06 01:52:33;;;;;;;5.25;3.65;;;15.80;99.90;;;;;;5080869;28;20032;-79
2021/06/06 01:55:09;;;;;;;4.70;3.67;;;15.90;99.90;;;;;;5069241;28;20069;-80
2021/06/06 01:57:40;;;;;;;4.82;3.88;;;15.90;99.90;;;;;;5063474;28;20103;-79
2021/06/06 02:00:14;;;;;;;4.72;3.72;;;15.80;99.90;;;;;;5059559;28;20025;-79
2021/06/06 02:02:46;;;;;;;6.15;3.95;;;15.90;99.90;;;;;;5076819;28;20036;-79
2021/06/06 02:05:19;;;;;;;7.95;4.03;;;15.90;99.90;;;;;;5068559;28;20029;-77
2021/06/06 02:07:48;;;;;;;5.60;4.22;;;15.90;99.90;;;;;;5082743;28;20108;-80
2021/06/06 02:10:17;;;;;;;6.05;4.43;;;15.90;99.90;;;;;;5076467;28;20024;-78
2021/06/06 02:12:52;;;;;;;5.43;4.03;;;15.90;99.90;;;;;;5087074;28;20024;-78
2021/06/06 02:15:25;;;;;;;4.93;4.05;;;15.90;99.90;;;;;;5084034;28;20028;-80
2021/06/06 02:18:08;;;;;;;5.70;4.47;;;16.00;99.90;;;;;;5089671;28;20063;-79
2021/06/06 02:20:42;;;;;;;6.45;4.53;;;16.00;99.90;;;;;;5083153;28;20443;-80
2021/06/06 02:23:09;;;;;;;4.65;3.72;;;16.00;99.90;;;;;;5082065;28;20033;-78
2021/06/06 02:25:37;;;;;;;5.95;4.53;;;16.00;99.90;;;;;;5079769;28;20063;-78
2021/06/06 02:28:37;;;;;;;5.22;3.92;;;16.00;99.90;;;;;;5091078;28;20036;-78
2021/06/06 02:31:24;;;;;;;7.05;4.22;;;16.00;99.90;;;;;;5065866;28;20028;-79
2021/06/06 02:34:19;;;;;;;6.00;3.92;;;16.00;99.90;;;;;;5075042;28;20505;-79
2021/06/06 02:37:01;;;;;;;6.13;4.18;;;16.00;99.90;;;;;;5075183;28;20029;-80
2021/06/06 02:39:36;;;;;;;5.15;3.97;;;16.00;99.90;;;;;;5076659;28;20075;-80
2021/06/06 02:42:11;;;;;;;6.82;4.95;;;16.00;99.90;;;;;;5060088;28;20032;-79
2021/06/06 02:44:57;;;;;;;5.43;4.47;;;16.00;99.90;;;;;;5074121;28;20025;-79
2021/06/06 02:47:31;;;;;;;5.57;4.68;;;16.00;99.90;;;;;;5093300;28;20035;-80
2021/06/06 02:50:27;;;;;;;6.40;4.88;;;16.00;99.90;;;;;;5088603;28;20032;-79
2021/06/06 02:53:06;;;;;;;5.18;4.22;;;16.00;99.90;;;;;;5064467;28;20095;-79
2021/06/06 02:55:41;;;;;;;6.60;4.80;;;16.00;99.90;;;;;;5079022;28;20033;-79
2021/06/06 02:58:20;;;;;;;5.32;4.32;;;16.10;99.90;;;;;;5059432;28;20482;-77
2021/06/06 03:00:55;;;;;;;6.13;4.47;;;16.10;99.90;;;;;;5075940;28;20178;-78
2021/06/06 03:03:33;;;;;;;6.70;4.80;;;16.10;99.90;;;;;;5079630;28;20044;-79
2021/06/06 03:06:19;;;;;;;6.82;4.43;;;16.10;99.90;;;;;;5078532;28;20115;-79
2021/06/06 03:08:46;;;;;;;5.47;4.65;;;16.10;99.90;;;;;;5073681;28;20423;-79
2021/06/06 03:11:15;;;;;;;4.55;4.13;;;16.10;99.90;;;;;;5080557;28;20025;-79
2021/06/06 03:13:50;;;;;;;5.97;4.70;;;16.10;99.90;;;;;;5072059;28;20029;-79
2021/06/06 03:16:18;;;;;;;4.95;4.18;;;16.10;99.90;;;;;;5073415;28;20063;-79
2021/06/06 03:18:53;;;;;;;6.18;4.82;;;16.10;99.90;;;;;;5085373;28;20035;-79
2021/06/06 03:21:30;;;;;;;7.72;4.43;;;16.20;99.90;;;;;;5066034;28;20016;-78
2021/06/06 03:24:04;;;;;;;7.30;5.30;;;16.20;99.90;;;;;;5075367;28;20035;-80
2021/06/06 03:26:36;;;;;;;5.97;4.85;;;16.10;99.90;;;;;;5077736;28;20046;-79
2021/06/06 03:29:09;;;;;;;6.38;5.22;;;16.20;99.90;;;;;;5079837;28;20082;-80
2021/06/06 03:31:42;;;;;;;9.10;6.32;;;16.20;99.90;;;;;;5074612;28;20036;-78
2021/06/06 03:34:09;;;;;;;6.90;5.15;;;16.20;99.90;;;;;;5086627;28;20056;-79
2021/06/06 03:36:48;;;;;;;7.03;4.97;;;16.20;99.90;;;;;;5086924;28;20041;-76
2021/06/06 03:39:32;;;;;;;9.27;5.63;;;16.20;99.90;;;;;;5077352;28;20071;-79
2021/06/06 03:42:03;;;;;;;9.02;5.78;;;16.30;99.90;;;;;;5080490;28;20076;-79
2021/06/06 03:44:30;;;;;;;7.65;5.15;;;16.20;99.90;;;;;;5063899;28;20053;-79
2021/06/06 03:46:57;;;;;;;7.70;5.10;;;16.20;99.90;;;;;;5087075;28;20036;-79
2021/06/06 03:49:24;;;;;;;6.20;5.05;;;16.20;99.90;;;;;;5067984;28;20029;-79
2021/06/06 03:51:52;;;;;;;6.18;4.88;;;16.20;99.90;;;;;;5069425;28;20044;-80
2021/06/06 03:54:20;;;;;;;8.00;4.90;;;16.20;99.90;;;;;;5068873;28;20063;-78
2021/06/06 03:56:48;;;;;;;7.72;4.90;;;16.20;99.90;;;;;;5072108;28;20437;-79
2021/06/06 03:59:14;;;;;;;7.68;4.20;;;16.20;99.90;;;;;;5079407;28;20137;-80
2021/06/06 04:01:43;;;;;;;6.15;4.50;;;16.30;99.90;;;;;;5067107;28;20049;-80
2021/06/06 04:04:09;;;;;;;4.20;3.63;;;16.30;99.90;;;;;;5090898;28;20819;-80
2021/06/06 04:06:36;;;;;;;4.97;3.92;;;16.30;99.90;;;;;;5075791;28;20047;-80
2021/06/06 04:09:04;;;;;;;6.28;4.35;;;16.30;99.90;;;;;;5067598;28;20033;-80
2021/06/06 04:11:32;;;;;;;6.53;3.88;;;16.30;99.90;;;;;;5086527;28;20050;-80
2021/06/06 04:14:08;;;;;;;4.75;4.07;;;16.30;99.90;;;;;;5082032;28;20029;-80
2021/06/06 04:16:37;;;;;;;6.43;5.03;;;16.30;99.90;;;;;;5082168;28;20037;-79
2021/06/06 04:19:05;;;;;;;9.88;6.20;;;16.40;99.90;;;;;;5085149;28;20029;-78
2021/06/06 04:21:35;;;;;;;7.88;5.40;;;16.40;99.90;;;;;;5082996;28;20033;-79
2021/06/06 04:24:02;;;;;;;10.70;6.70;;;16.40;99.90;;;;;;5074333;28;20033;-80
2021/06/06 04:26:28;;;;;;;9.15;6.40;;;16.40;99.90;;;;;;5062414;28;20059;-80
2021/06/06 04:28:57;;;;;;;8.85;5.90;;;16.40;99.90;;;;;;5077554;28;20082;-79
2021/06/06 04:31:29;;;;;;;9.65;6.07;;;16.40;99.90;;;;;;5085523;28;20060;-80
2021/06/06 04:33:56;;;;;;;9.73;6.55;;;16.40;99.90;;;;;;5089916;28;20028;-80
2021/06/06 04:36:22;;;;;;;8.63;6.30;;;16.40;99.90;;;;;;5069490;28;20068;-80
2021/06/06 04:38:50;;;;;;;11.40;6.82;;;16.40;99.90;;;;;;5080818;28;20092;-80
2021/06/06 04:41:21;;;;;;;8.70;6.32;;;16.40;99.90;;;;;;5093821;28;20032;-78
2021/06/06 04:43:47;;;;;;;9.13;6.35;;;16.50;99.90;;;;;;5078708;28;20032;-79
2021/06/06 04:46:15;;;;;;;7.38;6.20;;;16.50;99.90;;;;;;5083024;28;20047;-80
2021/06/06 04:48:45;;;;;;;9.15;6.38;;;16.50;99.90;;;;;;5082748;28;20028;-80
2021/06/06 04:51:20;;;;;;;9.13;6.85;;;16.50;99.90;;;;;;5061212;28;20021;-79
2021/06/06 04:53:55;;;;;;;10.27;7.00;;;16.50;99.90;;;;;;5072821;28;20497;-80
2021/06/06 04:56:28;;;;;;;8.88;6.47;;;16.50;99.90;;;;;;5089838;28;20128;-80
2021/06/06 04:58:57;;;;;;;8.30;6.20;;;16.60;99.90;;;;;;5061681;28;20048;-80
2021/06/06 05:01:24;;;;;;;9.30;6.90;;;16.60;99.90;;;;;;5079041;28;20025;-79
2021/06/06 05:03:51;;;;;;;10.05;6.47;;;16.70;99.90;;;;;;5070457;28;20052;-79
2021/06/06 05:06:18;;;;;;;13.02;7.57;;;16.70;99.90;;;;;;5074245;28;20084;-78
2021/06/06 05:08:46;;;;;;;9.90;6.78;;;16.80;99.90;;;;;;5093493;28;20533;-79
2021/06/06 05:11:12;;;;;;;12.30;7.47;;;16.90;99.90;;;;;;5081360;28;20035;-80
2021/06/06 05:13:38;;;;;;;9.85;6.90;;;16.90;99.90;;;;;;5066308;28;20029;-80
2021/06/06 05:16:05;;;;;;;11.68;6.93;;;17.00;99.90;;;;;;5081005;28;20511;-80
2021/06/06 05:18:32;;;;;;;12.07;7.20;;;17.00;99.90;;;;;;5081671;28;20548;-79
2021/06/06 05:21:02;;;;;;;10.93;7.18;;;17.10;99.90;;;;;;5090616;28;20025;-80
2021/06/06 05:23:30;;;;;;;11.52;7.80;;;17.20;99.90;;;;;;5077889;28;20082;-80
2021/06/06 05:26:04;;;;;;;12.30;7.47;;;17.20;99.90;;;;;;5077187;28;20514;-78
2021/06/06 05:28:32;;;;;;;11.63;7.45;;;17.20;99.90;;;;;;5078339;28;20703;-80
2021/06/06 05:30:59;;;;;;;9.35;7.05;;;17.20;99.90;;;;;;5081561;28;20033;-79
2021/06/06 05:33:25;;;;;;;9.32;6.93;;;17.20;99.90;;;;;;5079105;28;20076;-78
2021/06/06 05:35:52;;;;;;;9.88;7.45;;;17.30;99.90;;;;;;5075518;28;20057;-79
2021/06/06 05:38:20;;;;;;;9.63;6.75;;;17.30;99.90;;;;;;5081083;28;20082;-80
2021/06/06 05:40:46;;;;;;;10.13;7.38;;;17.40;99.90;;;;;;5069887;28;20057;-78
2021/06/06 05:43:14;;;;;;;11.07;7.60;;;17.40;99.90;;;;;;5077022;28;20372;-80
2021/06/06 05:45:40;;;;;;;10.65;6.95;;;17.50;99.90;;;;;;5068944;28;20066;-78
2021/06/06 05:48:08;;;;;;;8.95;6.78;;;17.50;99.90;;;;;;5077329;28;20067;-79
2021/06/06 05:50:37;;;;;;;9.77;6.72;;;17.50;99.90;;;;;;5073657;28;20033;-79
2021/06/06 05:53:18;;;;;;;9.50;6.82;;;17.60;99.90;;;;;;5084861;28;20067;-79
2021/06/06 05:55:44;;;;;;;7.65;5.78;;;17.60;99.90;;;;;;5078506;28;20029;-78
2021/06/06 05:58:12;;;;;;;10.85;6.80;;;17.60;99.90;;;;;;5081046;28;20032;-79
2021/06/06 06:00:41;;;;;;;11.25;7.25;;;17.70;99.90;;;;;;5081194;28;20083;-79
2021/06/06 06:03:08;;;;;;;8.93;6.78;;;17.60;99.90;;;;;;5080492;28;20112;-79
2021/06/06 06:05:34;;;;;;;7.28;6.13;;;17.60;99.90;;;;;;5079648;28;20020;-79
2021/06/06 06:08:10;;;;;;;7.35;5.53;;;17.70;99.90;;;;;;5080416;28;20032;-78
2021/06/06 06:10:36;;;;;;;8.88;6.22;;;17.70;99.90;;;;;;5081354;28;20506;-79
2021/06/06 06:13:02;;;;;;;9.20;5.85;;;17.70;99.90;;;;;;5093343;28;20041;-79
2021/06/06 06:15:27;;;;;;;7.90;5.68;;;17.80;99.90;;;;;;5080477;28;20031;-79
2021/06/06 06:17:53;;;;;;;8.18;5.38;;;17.80;99.90;;;;;;5080658;28;20028;-79
2021/06/06 06:20:20;;;;;;;7.85;6.63;;;17.90;99.90;;;;;;5075980;28;20039;-78
2021/06/06 06:22:47;;;;;;;9.05;6.07;;;18.00;99.90;;;;;;5080837;28;20017;-79
2021/06/06 06:25:14;;;;;;;6.53;5.38;;;18.00;99.90;;;;;;5080065;28;20028;-77
2021/06/06 06:27:41;;;;;;;7.55;6.03;;;18.10;99.90;;;;;;5083178;28;20071;-79
2021/06/06 06:30:19;;;;;;;8.95;6.25;;;18.20;99.90;;;;;;5080741;28;20028;-79
2021/06/06 06:32:44;;;;;;;8.10;6.72;;;18.20;99.90;;;;;;5079253;28;20066;-79
2021/06/06 06:35:10;;;;;;;7.90;6.53;;;18.30;99.90;;;;;;5079926;28;20021;-78
2021/06/06 06:37:37;;;;;;;11.30;7.10;;;18.40;99.90;;;;;;5078980;28;20045;-79
2021/06/06 06:40:06;;;;;;;13.35;8.13;;;18.40;99.90;;;;;;5080928;28;20020;-77
2021/06/06 06:42:32;;;;;;;11.27;7.10;;;18.40;99.90;;;;;;5080186;28;20111;-78
2021/06/06 06:44:58;;;;;;;8.80;7.15;;;18.30;99.90;;;;;;5080339;28;20044;-79
2021/06/06 06:47:24;;;;;;;9.40;7.13;;;18.30;99.90;;;;;;5079395;28;20037;-78
2021/06/06 06:49:51;;;;;;;10.65;7.38;;;18.30;99.90;;;;;;5080275;28;20037;-78
2021/06/06 06:52:17;;;;;;;9.52;6.93;;;18.30;99.90;;;;;;5079773;28;20043;-78
2021/06/06 06:54:43;;;;;;;9.85;7.05;;;18.30;99.90;;;;;;5077108;28;20394;-79
2021/06/06 06:57:09;;;;;;;9.57;6.65;;;18.30;99.90;;;;;;5080787;28;20028;-78
2021/06/06 06:59:35;;;;;;;9.27;6.50;;;18.30;99.90;;;;;;5079791;28;20040;-79
2021/06/06 07:02:03;;;;;;;7.40;5.40;;;18.30;99.90;;;;;;5078604;28;20025;-78
2021/06/06 07:04:28;;;;;;;9.35;6.50;;;18.30;99.90;;;;;;5077756;28;20024;-79
2021/06/06 07:06:55;;;;;;;11.95;6.88;;;18.30;99.90;;;;;;5082574;28;20032;-77
2021/06/06 07:09:23;;;;;;;9.55;7.07;;;18.30;99.90;;;;;;5082434;28;20115;-79
2021/06/06 07:11:49;;;;;;;9.52;7.53;;;18.30;99.90;;;;;;5078109;28;20045;-79
2021/06/06 07:14:15;;;;;;;10.18;7.60;;;18.30;99.90;;;;;;5081157;28;20032;-78
2021/06/06 07:16:41;;;;;;;10.73;7.50;;;18.30;99.90;;;;;;5083929;28;20047;-79
2021/06/06 07:19:07;;;;;;;8.77;6.20;;;18.30;99.90;;;;;;5083952;28;20040;-78
2021/06/06 07:21:35;;;;;;;8.70;6.38;;;18.30;99.90;;;;;;5081690;28;20033;-78
2021/06/06 07:24:01;;;;;;;9.40;6.88;;;18.40;99.90;;;;;;5083357;28;20031;-76
2021/06/06 07:26:39;;;;;;;10.63;7.75;;;18.60;99.90;;;;;;5084847;28;20032;-77
2021/06/06 07:29:11;;;;;;;9.95;7.30;;;18.80;99.90;;;;;;5083540;28;20024;-78
2021/06/06 07:31:39;;;;;;;9.00;7.15;;;19.00;99.90;;;;;;5083302;28;20024;-78
2021/06/06 07:34:05;;;;;;;10.13;7.70;;;19.20;99.90;;;;;;5083463;28;20020;-78
2021/06/06 07:36:31;;;;;;;10.38;7.10;;;19.40;99.90;;;;;;5085825;28;20063;-78
2021/06/06 07:38:57;;;;;;;8.73;6.50;;;19.60;99.90;;;;;;5085305;28;20088;-78
2021/06/06 07:41:23;;;;;;;9.27;7.30;;;19.90;99.90;;;;;;5086090;28;20052;-78
2021/06/06 07:43:49;;;;;;;10.25;6.63;;;20.10;99.90;;;;;;5084917;28;20032;-77
2021/06/06 07:46:15;;;;;;;8.40;6.82;;;20.20;99.90;;;;;;5085458;28;20043;-78
2021/06/06 07:48:42;;;;;;;7.72;6.32;;;20.40;99.90;;;;;;5085673;28;20028;-79
2021/06/06 07:51:08;;;;;;;8.80;6.43;;;20.50;99.90;;;;;;5086316;28;20020;-79
2021/06/06 07:53:34;;;;;;;9.30;6.15;;;20.70;99.90;;;;;;5086427;28;20036;-78
2021/06/06 07:56:00;;;;;;;9.55;7.03;;;20.80;99.90;;;;;;5085791;28;20086;-77
2021/06/06 07:58:32;;;;;;;8.82;6.32;;;20.80;99.90;;;;;;5096830;28;20056;-78
2021/06/06 08:00:58;;;;;;;6.72;5.72;;;20.70;99.90;;;;;;5082054;28;20044;-77
2021/06/06 08:03:27;;;;;;;7.57;5.95;;;20.90;99.90;;;;;;5096596;28;20032;-77
2021/06/06 08:05:53;;;;;;;6.40;5.32;;;21.20;99.90;;;;;;5081039;28;20038;-77
2021/06/06 08:08:19;;;;;;;7.75;5.75;;;21.40;99.90;;;;;;5082387;28;20024;-78
2021/06/06 08:10:48;;;;;;;8.13;6.20;;;21.40;99.90;;;;;;5087252;28;20497;-78
2021/06/06 08:13:14;;;;;;;6.43;5.40;;;21.50;99.90;;;;;;5088482;28;20047;-77
2021/06/06 08:15:40;;;;;;;7.60;5.45;;;21.60;99.90;;;;;;5084696;28;20056;-78
2021/06/06 08:18:09;;;;;;;7.70;5.53;;;21.60;99.90;;;;;;5081888;28;20046;-77
2021/06/06 08:20:40;;;;;;;6.43;5.75;;;21.70;99.90;;;;;;5085650;28;20085;-78
2021/06/06 08:23:10;;;;;;;6.18;5.45;;;21.80;99.90;;;;;;5083569;28;20126;-78
2021/06/06 08:25:37;;;;;;;6.53;4.95;;;22.20;99.90;;;;;;5084146;28;20017;-78
2021/06/06 08:28:05;;;;;;;4.65;3.95;;;22.30;99.90;;;;;;5081981;28;20487;-77
2021/06/06 08:30:44;;;;;;;6.78;4.82;;;22.60;99.90;;;;;;5080526;28;20037;-78
2021/06/06 08:33:11;;;;;;;5.55;3.83;;;22.80;99.90;;;;;;5089060;28;20029;-78
2021/06/06 08:35:38;;;;;;;5.40;4.40;;;22.90;99.90;;;;;;5087198;28;20039;-78
2021/06/06 08:38:05;;;;;;;3.80;3.38;;;23.10;99.90;;;;;;5102649;28;20465;-77
2021/06/06 08:40:53;;;;;;;4.63;4.13;;;23.40;99.90;;;;;;5085155;28;20273;-77
2021/06/06 08:43:22;;;;;;;4.30;3.90;;;23.80;99.90;;;;;;5072350;28;20040;-77
2021/06/06 08:46:00;;;;;;;5.85;3.50;;;24.10;99.90;;;;;;5090812;28;20028;-77
2021/06/06 08:48:30;;;;;;;4.95;4.03;;;24.20;99.90;;;;;;5081770;28;20040;-78
2021/06/06 08:51:21;;;;;;;4.25;3.85;;;24.30;99.90;;;;;;5095855;28;20075;-78
2021/06/06 08:54:10;;;;;;;5.88;4.32;;;24.50;99.90;;;;;;5080570;28;20028;-77
2021/06/06 08:56:37;;;;;;;4.90;3.92;;;24.60;99.90;;;;;;5081017;28;20425;-78
2021/06/06 08:59:15;;;;;;;3.58;3.20;;;24.90;99.90;;;;;;5088209;28;20048;-78
2021/06/06 09:01:50;;;;;;;3.20;3.00;;;24.90;99.90;;;;;;5084005;28;20095;-78
2021/06/06 09:04:24;;;;;;;3.93;3.60;;;25.10;99.90;;;;;;5083480;28;20032;-79
2021/06/06 09:06:54;;;;;;;3.67;3.25;;;25.40;99.90;;;;;;5075462;28;20084;-79
2021/06/06 09:09:23;;;;;;;3.53;3.10;;;25.60;99.90;;;;;;5086320;28;20455;-78
2021/06/06 09:11:50;;;;;;;3.55;3.13;;;25.60;99.90;;;;;;5081812;28;20088;-79
2021/06/06 09:14:17;;;;;;;3.22;2.92;;;25.60;99.90;;;;;;5094559;28;20296;-79
2021/06/06 09:16:54;;;;;;;4.15;2.83;;;25.30;99.90;;;;;;5093546;28;20039;-78
2021/06/06 09:19:20;;;;;;;2.72;2.53;;;25.30;99.90;;;;;;5094893;28;20061;-77
2021/06/06 09:22:02;;;;;;;2.88;2.67;;;25.20;99.90;;;;;;5101629;28;20113;-78
2021/06/06 09:24:37;;;;;;;3.63;3.00;;;25.00;99.90;;;;;;5092173;28;20734;-78
2021/06/06 09:27:20;;;;;;;3.33;3.03;;;24.90;99.90;;;;;;5076029;28;20036;-78
2021/06/06 09:30:00;;;;;;;4.68;3.72;;;24.60;99.90;;;;;;5074721;28;20120;-79
2021/06/06 09:32:25;;;;;;;3.58;3.17;;;24.50;99.90;;;;;;5066840;28;20032;-79
2021/06/06 09:35:15;;;;;;;5.00;3.70;;;24.40;99.90;;;;;;5085439;28;20060;-78
2021/06/06 09:37:52;;;;;;;4.05;3.20;;;24.30;99.90;;;;;;5082453;28;20024;-78
2021/06/06 09:40:35;;;;;;;3.90;3.50;;;24.20;99.90;;;;;;5086453;28;20031;-78
2021/06/06 09:43:01;;;;;;;3.72;3.42;;;24.00;99.90;;;;;;5099656;28;20024;-78
2021/06/06 09:45:35;;;;;;;5.13;4.38;;;23.90;99.90;;;;;;5082789;28;20070;-79
2021/06/06 09:48:16;;;;;;;3.30;3.00;;;23.80;99.90;;;;;;5079008;28;20032;-77
2021/06/06 09:50:49;;;;;;;3.05;2.85;;;23.60;99.90;;;;;;5085257;28;20103;-79
2021/06/06 09:53:25;;;;;;;3.10;2.83;;;23.70;99.90;;;;;;5102066;28;20039;-78
2021/06/06 09:56:03;;;;;;;2.83;2.60;;;23.80;99.90;;;;;;5084317;28;20032;-79
2021/06/06 09:58:33;;;;;;;3.92;3.53;;;23.70;99.90;;;;;;5083888;28;20044;-80
2021/06/06 10:01:18;;;;;;;3.13;2.78;;;23.70;99.90;;;;;;5081657;28;20051;-77
2021/06/06 10:03:55;;;;;;;2.90;2.70;;;23.60;99.90;;;;;;5078691;28;20032;-78
2021/06/06 10:06:29;;;;;;;4.93;3.33;;;23.50;99.90;;;;;;5074845;28;20050;-77
2021/06/06 10:09:23;;;;;;;3.08;2.78;;;23.70;99.90;;;;;;5080862;28;20543;-79
2021/06/06 10:11:55;;;;;;;3.38;3.08;;;24.10;99.90;;;;;;5080522;28;20096;-79
2021/06/06 10:14:33;;;;;;;3.08;2.75;;;24.20;99.90;;;;;;5076872;28;20040;-78
2021/06/06 10:17:04;;;;;;;3.53;3.15;;;24.00;99.90;;;;;;5081308;28;20037;-79
2021/06/06 10:19:53;;;;;;;2.97;2.78;;;23.90;99.90;;;;;;5072946;28;20067;-79
2021/06/06 10:22:29;;;;;;;3.70;3.40;;;23.70;99.90;;;;;;5072304;28;20029;-79
2021/06/06 10:25:09;;;;;;;3.75;3.00;;;23.50;99.90;;;;;;5077725;28;20095;-78
2021/06/06 10:27:39;;;;;;;2.78;2.58;;;23.30;99.90;;;;;;5075993;28;20051;-77
2021/06/06 10:30:13;;;;;;;3.45;2.95;;;22.90;99.90;;;;;;5076642;28;20553;-77
2021/06/06 10:32:44;;;;;;;4.10;3.70;;;22.70;99.90;;;;;;5077008;28;20027;-78
2021/06/06 10:35:14;;;;;;;4.53;2.22;;;22.40;99.90;;;;;;5075715;28;20241;-78
2021/06/06 10:37:42;;;;;;;2.60;2.40;;;22.00;99.90;;;;;;5079296;28;20013;-78
2021/06/06 10:40:31;;;;;;;2.22;1.70;;;21.60;99.90;;;;;;5080055;28;20021;-77
2021/06/06 10:43:11;;;;;;;1.90;1.67;;;21.30;99.90;;;;;;5078188;28;20047;-78
2021/06/06 10:45:48;;;;;;;2.03;1.90;;;20.80;99.90;;;;;;5078560;28;20032;-77
2021/06/06 10:48:22;;;;;;;3.22;1.95;;;20.60;99.90;;;;;;5073650;28;20041;-78
2021/06/06 10:50:52;;;;;;;2.60;2.00;;;20.40;99.90;;;;;;5072212;28;20060;-78
2021/06/06 10:53:22;;;;;;;2.00;1.80;;;20.20;99.90;;;;;;5088395;28;20131;-78
2021/06/06 10:56:00;;;;;;;1.75;1.63;;;20.00;99.90;;;;;;5074100;28;20024;-78
2021/06/06 10:58:45;;;;;;;2.67;1.90;;;19.90;99.90;;;;;;5076236;28;20024;-79
2021/06/06 11:01:19;;;;;;;3.28;1.70;;;19.90;99.90;;;;;;5081097;28;20123;-79
2021/06/06 11:03:47;;;;;;;2.05;1.80;;;19.80;99.90;;;;;;5077089;28;20370;-79
2021/06/06 11:06:27;;;;;;;1.65;1.55;;;19.70;99.90;;;;;;5076637;28;20109;-78
2021/06/06 11:08:53;;;;;;;1.95;1.73;;;19.70;99.90;;;;;;5076641;28;20092;-77
2021/06/06 11:11:27;;;;;;;2.50;1.85;;;19.60;99.90;;;;;;5077955;28;20024;-77
2021/06/06 11:14:14;;;;;;;2.00;1.73;;;19.60;99.90;;;;;;5079166;28;20040;-79
2021/06/06 11:16:51;;;;;;;1.73;1.63;;;19.60;99.90;;;;;;5080244;28;20020;-79
2021/06/06 11:19:20;;;;;;;2.10;2.00;;;19.50;99.90;;;;;;5078168;28;20028;-79
2021/06/06 11:21:45;;;;;;;2.92;2.13;;;19.40;99.90;;;;;;5089246;28;20557;-78
2021/06/06 11:24:20;;;;;;;2.30;1.92;;;19.40;99.90;;;;;;5076664;28;20052;-77
2021/06/06 11:27:01;;;;;;;2.10;1.90;;;19.30;99.90;;;;;;5075501;28;20426;-79
2021/06/06 11:29:38;;;;;;;3.58;1.80;;;19.20;99.90;;;;;;5076116;28;20035;-78
2021/06/06 11:32:18;;;;;;;2.08;1.88;;;19.20;99.90;;;;;;5076476;28;20071;-79
2021/06/06 11:35:04;;;;;;;2.35;1.98;;;19.20;99.90;;;;;;5071776;28;20487;-78
2021/06/06 11:37:30;;;;;;;2.63;1.80;;;19.20;99.90;;;;;;5074688;28;20027;-78
2021/06/06 11:39:58;;;;;;;4.00;2.00;;;19.10;99.90;;;;;;5057514;28;20020;-78
2021/06/06 11:42:40;;;;;;;2.75;2.22;;;19.10;99.90;;;;;;5078370;28;20040;-79
2021/06/06 11:45:24;;;;;;;2.13;1.88;;;19.10;99.90;;;;;;5072973;28;20024;-79
2021/06/06 11:47:55;;;;;;;2.45;2.25;;;19.10;99.90;;;;;;5075264;28;20100;-77
2021/06/06 11:50:35;;;;;;;2.20;2.00;;;19.10;99.90;;;;;;5075953;28;20049;-77
2021/06/06 11:53:24;;;;;;;2.28;2.08;;;19.10;99.90;;;;;;5077086;28;20513;-79
2021/06/06 11:55:52;;;;;;;1.88;1.67;;;19.20;99.90;;;;;;5065065;28;20032;-80
2021/06/06 11:58:33;;;;;;;2.15;2.05;;;19.20;99.90;;;;;;5077790;28;20033;-77
2021/06/06 12:01:04;;;;;;;2.55;2.20;;;19.20;99.90;;;;;;5077325;28;20080;-78
2021/06/06 12:03:33;;;;;;;2.67;2.20;;;19.30;99.90;;;;;;5075863;28;20528;-78
2021/06/06 12:06:08;;;;;;;2.40;2.00;;;19.30;99.90;;;;;;5077283;28;20305;-79
2021/06/06 12:08:42;;;;;;;2.10;1.90;;;19.40;99.90;;;;;;5077869;28;20058;-78
2021/06/06 12:11:20;;;;;;;2.20;2.00;;;19.40;99.90;;;;;;5080169;28;20056;-78
2021/06/06 12:13:48;;;;;;;2.17;1.88;;;19.50;99.90;;;;;;5079561;28;20064;-78
2021/06/06 12:16:22;;;;;;;2.00;1.85;;;19.60;99.90;;;;;;5077568;28;20044;-78
2021/06/06 12:19:01;;;;;;;2.20;2.00;;;19.70;99.90;;;;;;5098133;28;20052;-77
2021/06/06 12:21:28;;;;;;;2.53;2.33;;;19.80;99.90;;;;;;5084805;28;20024;-78
2021/06/06 12:24:06;;;;;;;2.47;2.10;;;19.80;99.90;;;;;;5083322;28;20029;-78
2021/06/06 12:26:39;;;;;;;3.10;2.17;;;19.90;99.90;;;;;;5080168;28;20040;-78
2021/06/06 12:29:05;;;;;;;2.50;2.22;;;20.00;99.90;;;;;;5093200;28;20051;-78
2021/06/06 12:31:35;;;;;;;3.22;2.40;;;20.10;99.90;;;;;;5080400;28;20021;-78
2021/06/06 12:34:26;;;;;;;3.15;2.85;;;20.20;99.90;;;;;;5093406;28;20056;-78
2021/06/06 12:37:02;;;;;;;2.95;2.72;;;20.30;99.90;;;;;;5076771;28;20060;-78
2021/06/06 12:39:29;;;;;;;3.22;2.92;;;20.30;99.90;;;;;;5076854;28;20036;-78
2021/06/06 12:41:56;;;;;;;2.90;2.70;;;20.30;99.90;;;;;;5074276;28;20021;-78
2021/06/06 12:44:27;;;;;;;3.17;2.60;;;20.30;99.90;;;;;;5073341;28;20702;-79
2021/06/06 12:46:55;;;;;;;3.13;2.80;;;20.40;99.90;;;;;;5071816;28;20526;-78
2021/06/06 12:49:35;;;;;;;3.50;3.20;;;20.50;99.90;;;;;;5091167;28;20039;-77
2021/06/06 12:52:20;;;;;;;7.85;3.40;;;20.60;99.90;;;;;;5077345;28;20043;-76
2021/06/06 12:54:46;;;;;;;3.67;3.38;;;20.70;99.90;;;;;;5071462;28;20028;-78
2021/06/06 12:57:22;;;;;;;4.10;3.72;;;20.80;99.90;;;;;;5073293;28;20043;-78
2021/06/06 12:59:49;;;;;;;3.60;3.08;;;20.80;99.90;;;;;;5072965;28;20028;-77
2021/06/06 13:02:23;;;;;;;3.90;3.42;;;20.90;99.90;;;;;;5073859;28;20023;-78
2021/06/06 13:05:01;;;;;;;3.60;3.30;;;20.90;99.90;;;;;;5072590;28;20032;-78
2021/06/06 13:07:32;;;;;;;3.97;3.58;;;21.00;99.90;;;;;;5072020;28;20091;-78
2021/06/06 13:09:58;;;;;;;3.35;2.97;;;21.10;99.90;;;;;;5070676;28;20063;-77